createdAt,value
2019-05-26T00:00:58.517Z,13.50
2019-05-26T00:07:02.735Z,13.50
2019-05-26T00:13:07.261Z,13.50
2019-05-26T00:19:11.504Z,13.40
2019-05-26T00:25:15.867Z,13.40
2019-05-26T00:31:20.099Z,13.30
2019-05-26T00:37:24.370Z,13.30
2019-05-26T00:43:28.589Z,13.20
2019-05-26T00:49:32.957Z,13.10
2019-05-26T00:55:37.243Z,13.00
2019-05-26T01:01:41.551Z,12.90
2019-05-26T01:07:45.782Z,12.90
2019-05-26T01:13:50.093Z,13.00
2019-05-26T01:19:54.382Z,12.80
2019-05-26T01:25:58.612Z,13.10
2019-05-26T01:32:02.829Z,12.80
2019-05-26T01:38:22.532Z,12.90
2019-05-26T01:44:14.025Z,12.70
2019-05-26T01:50:18.319Z,12.80
2019-05-26T01:56:22.525Z,12.90
2019-05-26T02:02:26.719Z,12.80
2019-05-26T02:08:39.454Z,12.70
2019-05-26T02:14:36.966Z,12.50
2019-05-26T02:20:41.582Z,12.50
2019-05-26T02:26:45.790Z,12.30
2019-05-26T02:32:50.064Z,12.30
2019-05-26T02:39:02.205Z,12.30
2019-05-26T02:45:00.204Z,12.20
2019-05-26T02:51:04.421Z,12.10
2019-05-26T02:57:08.653Z,12.00
2019-05-26T03:03:14.287Z,12.00
2019-05-26T03:09:23.185Z,12.00
2019-05-26T03:15:26.230Z,12.00
2019-05-26T03:21:31.710Z,12.10
2019-05-26T03:27:36.162Z,12.00
2019-05-26T03:33:40.402Z,11.80
2019-05-26T03:39:46.293Z,12.00
2019-05-26T03:46:21.904Z,12.10
2019-05-26T03:52:26.267Z,12.60
2019-05-26T03:58:30.565Z,12.60
2019-05-26T04:04:34.838Z,12.80
2019-05-26T04:10:39.120Z,12.60
2019-05-26T04:16:43.313Z,12.70
2019-05-26T04:22:47.598Z,12.70
2019-05-26T04:28:51.887Z,12.80
2019-05-26T04:34:56.065Z,13.10
2019-05-26T04:41:00.389Z,13.30
2019-05-26T04:47:04.705Z,13.00
2019-05-26T04:53:08.942Z,13.10
2019-05-26T04:59:13.162Z,13.10
2019-05-26T05:05:17.520Z,13.40
2019-05-26T05:11:21.729Z,13.30
2019-05-26T05:17:25.977Z,13.80
2019-05-26T05:23:30.256Z,13.80
2019-05-26T05:29:34.531Z,14.10
2019-05-26T05:35:38.852Z,14.50
2019-05-26T05:41:43.117Z,14.50
2019-05-26T05:47:47.396Z,14.80
2019-05-26T05:53:51.636Z,15.00
2019-05-26T05:59:55.909Z,15.30
2019-05-26T06:06:00.222Z,15.20
2019-05-26T06:12:04.434Z,16.00
2019-05-26T06:18:08.836Z,16.50
2019-05-26T06:24:13.198Z,17.20
2019-05-26T06:30:17.720Z,17.50
2019-05-26T06:36:22.039Z,17.50
2019-05-26T06:42:26.322Z,18.00
2019-05-26T06:48:33.287Z,18.50
2019-05-26T06:54:37.581Z,19.00
2019-05-26T07:00:41.807Z,19.60
2019-05-26T07:06:46.028Z,20.10
2019-05-26T07:12:50.229Z,20.20
2019-05-26T07:18:54.596Z,20.30
2019-05-26T07:24:58.846Z,20.80
2019-05-26T07:31:03.148Z,21.40
2019-05-26T07:37:07.366Z,21.40
2019-05-26T07:43:11.584Z,21.80
2019-05-26T07:49:15.797Z,21.80
2019-05-26T07:55:20.165Z,22.50
2019-05-26T08:01:24.703Z,22.30
2019-05-26T08:07:28.932Z,22.70
2019-05-26T08:13:33.137Z,22.30
2019-05-26T08:19:37.413Z,22.60
2019-05-26T08:25:41.995Z,22.70
2019-05-26T08:31:46.330Z,22.90
2019-05-26T08:37:50.587Z,22.90
2019-05-26T08:43:54.798Z,22.90
2019-05-26T08:49:59.093Z,22.90
2019-05-26T08:56:03.371Z,22.80
2019-05-26T09:02:07.644Z,22.80
2019-05-26T09:08:11.841Z,23.20
2019-05-26T09:14:16.217Z,23.30
2019-05-26T09:20:23.213Z,22.80
2019-05-26T09:26:27.391Z,22.80
2019-05-26T09:32:31.587Z,23.10
2019-05-26T09:38:35.761Z,23.10
2019-05-26T09:44:39.967Z,23.20
2019-05-26T09:50:44.165Z,23.30
2019-05-26T09:56:48.501Z,23.40
2019-05-26T10:02:52.772Z,23.40
2019-05-26T10:08:57.117Z,23.40
2019-05-26T10:15:01.408Z,23.20
2019-05-26T10:21:05.727Z,23.10
2019-05-26T10:27:10.010Z,23.10
2019-05-26T10:33:14.266Z,23.40
2019-05-26T10:39:18.557Z,23.20
2019-05-26T10:45:22.789Z,23.20
2019-05-26T10:51:27.000Z,23.30
2019-05-26T10:57:31.394Z,23.20
2019-05-26T11:03:35.630Z,23.20
2019-05-26T11:09:39.982Z,23.20
2019-05-26T11:15:45.080Z,23.30
2019-05-26T11:21:49.597Z,23.40
2019-05-26T11:27:53.825Z,23.20
2019-05-26T11:33:58.037Z,23.40
2019-05-26T11:40:02.212Z,23.20
2019-05-26T11:46:06.436Z,23.40
2019-05-26T11:52:10.631Z,23.40
2019-05-26T11:58:14.822Z,23.20
2019-05-26T12:04:19.112Z,23.20
2019-05-26T12:10:23.317Z,23.20
2019-05-26T12:16:28.987Z,23.20
2019-05-26T12:22:33.268Z,23.10
2019-05-26T12:28:37.589Z,23.00
2019-05-26T12:34:41.876Z,23.20
2019-05-26T12:40:46.472Z,23.10
2019-05-26T12:46:50.641Z,23.20
2019-05-26T12:52:55.014Z,23.10
2019-05-26T12:58:59.229Z,22.90
2019-05-26T13:05:03.547Z,23.00
2019-05-26T13:11:07.744Z,22.90
2019-05-26T13:17:12.103Z,23.00
2019-05-26T13:23:16.333Z,23.00
2019-05-26T13:29:20.668Z,23.00
2019-05-26T13:35:24.843Z,23.00
2019-05-26T13:41:29.866Z,23.00
2019-05-26T13:47:34.069Z,23.00
2019-05-26T13:53:38.317Z,22.90
2019-05-26T13:59:42.658Z,22.80
2019-05-26T14:05:46.860Z,22.70
2019-05-26T14:11:51.546Z,22.70
2019-05-26T14:17:56.252Z,22.80
2019-05-26T14:24:00.571Z,22.70
2019-05-26T14:30:05.956Z,22.60
2019-05-26T14:36:10.168Z,22.70
2019-05-26T14:42:14.428Z,22.70
2019-05-26T14:48:18.673Z,22.70
2019-05-26T14:54:22.870Z,22.60
2019-05-26T15:00:27.480Z,22.50
2019-05-26T15:06:31.834Z,22.50
2019-05-26T15:12:36.095Z,22.60
2019-05-26T15:18:40.432Z,22.60
2019-05-26T15:24:44.626Z,22.60
2019-05-26T15:30:49.179Z,22.50
2019-05-26T15:36:53.464Z,22.40
2019-05-26T15:42:57.736Z,22.50
2019-05-26T15:49:02.102Z,22.50
2019-05-26T15:55:06.873Z,22.50
2019-05-26T16:01:11.164Z,22.50
2019-05-26T16:07:15.380Z,22.40
2019-05-26T16:13:19.593Z,22.40
2019-05-26T16:19:23.931Z,22.30
2019-05-26T16:25:28.566Z,22.20
2019-05-26T16:31:32.917Z,22.30
2019-05-26T16:37:37.217Z,22.20
2019-05-26T16:43:41.419Z,22.20
2019-05-26T16:49:45.912Z,22.20
2019-05-26T16:55:50.110Z,22.10
2019-05-26T17:01:54.326Z,22.20
2019-05-26T17:07:58.726Z,22.10
2019-05-26T17:14:02.987Z,22.00
2019-05-26T17:20:07.681Z,21.90
2019-05-26T17:26:11.948Z,22.00
2019-05-26T17:32:16.285Z,22.00
2019-05-26T17:38:20.810Z,21.80
2019-05-26T17:44:25.768Z,21.80
2019-05-26T17:50:30.274Z,21.60
2019-05-26T17:56:34.790Z,21.90
2019-05-26T18:02:39.037Z,21.70
2019-05-26T18:08:43.428Z,21.10
2019-05-26T18:14:47.644Z,21.00
2019-05-26T18:20:51.870Z,21.10
2019-05-26T18:26:56.203Z,21.00
2019-05-26T18:33:00.546Z,20.70
2019-05-26T18:39:06.674Z,20.70
2019-05-26T18:45:12.490Z,20.70
2019-05-26T18:51:16.785Z,20.40
2019-05-26T18:57:22.877Z,19.80
2019-05-26T19:03:27.131Z,20.30
2019-05-26T19:09:31.347Z,19.90
2019-05-26T19:15:35.799Z,20.20
2019-05-26T19:21:40.017Z,20.40
2019-05-26T19:27:44.385Z,19.50
2019-05-26T19:33:48.597Z,19.80
2019-05-26T19:39:52.823Z,19.90
2019-05-26T19:45:57.124Z,20.20
2019-05-26T19:52:01.389Z,19.10
2019-05-26T19:58:05.622Z,18.90
2019-05-26T20:04:09.895Z,18.50
2019-05-26T20:10:16.203Z,17.80
2019-05-26T20:16:20.478Z,18.00
2019-05-26T20:22:24.781Z,18.30
2019-05-26T20:28:28.983Z,17.50
2019-05-26T20:34:33.190Z,17.80
2019-05-26T20:40:37.484Z,18.00
2019-05-26T20:46:41.723Z,17.60
2019-05-26T20:52:46.091Z,17.60
2019-05-26T20:58:50.336Z,16.70
2019-05-26T21:04:54.678Z,17.00
2019-05-26T21:10:58.910Z,16.90
2019-05-26T21:17:03.325Z,17.20
2019-05-26T21:23:07.641Z,16.90
2019-05-26T21:29:12.101Z,16.50
2019-05-26T21:35:16.620Z,16.50
2019-05-26T21:41:20.925Z,16.40
2019-05-26T21:47:25.178Z,16.70
2019-05-26T21:53:29.478Z,16.20
2019-05-26T21:59:33.810Z,16.60
2019-05-26T22:05:38.104Z,16.50
2019-05-26T22:11:42.404Z,16.90
2019-05-26T22:17:46.931Z,16.50
2019-05-26T22:23:51.243Z,16.90
2019-05-26T22:29:55.498Z,16.70
2019-05-26T22:35:59.783Z,16.60
2019-05-26T22:42:04.418Z,16.20
2019-05-26T22:48:08.899Z,16.10
2019-05-26T22:54:13.181Z,16.00
2019-05-26T23:00:18.030Z,16.10
2019-05-26T23:06:22.309Z,16.40
2019-05-26T23:12:26.601Z,16.90
2019-05-26T23:18:30.937Z,16.70
2019-05-26T23:24:35.167Z,17.10
2019-05-26T23:30:39.436Z,16.40
2019-05-26T23:36:43.649Z,16.20
2019-05-26T23:42:47.936Z,16.20
2019-05-26T23:48:52.237Z,16.40
2019-05-26T23:54:56.453Z,16.30
